Terminal Aerodrome Forecast
Issued by NWS Albuquerque, NM

Home | Current Version | Previous Version | Text Only | Print | Product List | Glossary On
Versions: 1 2 3 4 5 6 7 8 9 10 11
000
FTUS45 KABQ 272300
TAFABQ
TAF
KABQ 272331Z 2800/2824 VRB05KT P6SM FEW080
     FM280300 35005KT P6SM SKC
     FM282100 31010KT P6SM FEW080=

USA.gov is the U.S. government's official web portal to all federal, state and local government web resources and services.